Flight Track Log - Related Links

Times and Time Zones

All times are in EDT time to prevent confusion due to time zone crossing. See the CCA1888 flight status page for this flight to view local times or setup timezone preferences in your user account.

Time Position Orientation Groundspeed Altitude Reporting Facility
EDT Latitude Longitude Course Direction KTS MPH feet Rate Location/Type
Sat 07:45:32 AM 29.3932 117.1732 358° North  Level Estimated
Sat 07:46:32 AM 29.4956 117.1682 358° North  Level Estimated
Sat 07:47:32 AM 29.5979 117.1632 358° North  Level Estimated
Sat 07:48:32 AM 29.7003 117.1582 358° North  Level Estimated
Sat 07:49:32 AM 29.8026 117.1532 358° North  Level Estimated
Sat 07:50:32 AM 29.9049 117.1482 358° North  Level Estimated
Sat 07:51:32 AM 30.0073 117.1431 358° North  Level Estimated
Sat 07:52:32 AM 30.1096 117.1381 358° North  Level Estimated
Sat 07:53:32 AM 30.2120 117.1330 358° North  Level Estimated
Sat 07:54:32 AM 30.3144 117.1280 358° North  Level Estimated
Sat 07:55:32 AM 30.4167 117.1229 358° North  Level Estimated
Sat 07:56:32 AM 30.5191 117.1178 358° North  Level Estimated
Sat 07:57:32 AM 30.6214 117.1127 358° North  Level Estimated
Sat 07:58:32 AM 30.7237 117.1076 358° North  Level Estimated
Sat 07:59:32 AM 30.8261 117.1025 358° North  Level Estimated
Sat 08:00:32 AM 30.9284 117.0973 358° North  Level Estimated
Sat 08:01:32 AM 31.0308 117.0922 358° North  Level Estimated
Sat 08:02:32 AM 31.1332 117.0871 358° North  Level Estimated
Sat 08:03:32 AM 31.2355 117.0819 358° North  Level Estimated
Sat 08:04:32 AM 31.3379 117.0767 358° North  Level Estimated
Sat 08:05:32 AM 31.4402 117.0715 358° North  Level Estimated
Sat 08:06:32 AM 31.5425 117.0663 358° North  Level Estimated
Sat 08:07:32 AM 31.6449 117.0611 358° North  Level Estimated
Sat 08:08:32 AM 31.7472 117.0559 358° North  Level Estimated
Sat 08:09:32 AM 31.8496 117.0507 358° North  Level Estimated
Sat 08:10:32 AM 31.9520 117.0454 358° North  Level Estimated
Sat 08:11:32 AM 32.0543 117.0402 358° North  Level Estimated
Sat 08:12:32 AM 32.1566 117.0349 358° North  Level Estimated
Sat 08:13:32 AM 32.2590 117.0296 357° North  Level Estimated
Sat 08:14:32 AM 32.3613 117.0243 357° North  Level Estimated
Sat 08:15:32 AM 32.4637 117.0190 357° North  Level Estimated
Sat 08:16:32 AM 32.5660 117.0137 357° North  Level Estimated
Sat 08:17:32 AM 32.6684 117.0084 357° North  Level Estimated
Sat 08:18:32 AM 32.7707 117.0030 357° North  Level Estimated
Sat 08:19:32 AM 32.8730 116.9977 357° North  Level Estimated
Sat 08:20:32 AM 32.9754 116.9923 357° North  Level Estimated
Sat 08:21:32 AM 33.0777 116.9869 357° North  Level Estimated
Sat 08:22:32 AM 33.1801 116.9816 357° North  Level Estimated
Sat 08:23:32 AM 33.2824 116.9762 357° North  Level Estimated
Sat 08:24:32 AM 33.3847 116.9707 357° North  Level Estimated
Sat 08:25:32 AM 33.4871 116.9653 357° North  Level Estimated
Sat 08:26:32 AM 33.5894 116.9599 357° North  Level Estimated
Sat 08:27:32 AM 33.6918 116.9544 357° North  Level Estimated
Sat 08:28:32 AM 33.7941 116.9490 357° North  Level Estimated
Sat 08:29:32 AM 33.8964 116.9435 357° North  Level Estimated
Sat 08:30:32 AM 33.9988 116.9380 357° North  Level Estimated
Sat 08:31:32 AM 34.1011 116.9325 357° North  Level Estimated
Sat 08:32:32 AM 34.2035 116.9270 357° North  Level Estimated
Sat 08:33:32 AM 34.3058 116.9214 357° North  Level Estimated
Sat 08:34:32 AM 34.4081 116.9159 357° North  Level Estimated
Sat 08:35:32 AM 34.5105 116.9103 357° North  Level Estimated
Sat 08:36:32 AM 34.6128 116.9048 357° North  Level Estimated
Sat 08:37:32 AM 34.7152 116.8992 357° North  Level Estimated
Sat 08:38:32 AM 34.8175 116.8936 357° North  Level Estimated
Sat 08:39:32 AM 34.9198 116.8879 357° North  Level Estimated
Sat 08:40:32 AM 35.0222 116.8823 357° North  Level Estimated
Sat 08:41:32 AM 35.1245 116.8767 357° North  Level Estimated
Sat 08:42:32 AM 35.2269 116.8710 357° North  Level Estimated
Sat 08:43:32 AM 35.3292 116.8653 357° North  Level Estimated
Sat 08:44:32 AM 35.4315 116.8597 357° North  Level Estimated
Sat 08:45:32 AM 35.5339 116.8540 357° North  Level Estimated
Sat 08:46:32 AM 35.6362 116.8482 357° North  Level Estimated
Sat 08:47:32 AM 35.7386 116.8425 357° North  Level Estimated
Sat 08:48:32 AM 35.8409 116.8368 357° North  Level Estimated
Sat 08:49:32 AM 35.9432 116.8310 357° North  Level Estimated
Sat 08:50:32 AM 36.0456 116.8252 357° North  Level Estimated
Sat 08:51:32 AM 36.1479 116.8194 357° North  Level Estimated
Sat 08:52:32 AM 36.2503 116.8136 357° North  Level Estimated
Sat 08:53:32 AM 36.3526 116.8078 357° North  Level Estimated
Sat 08:54:32 AM 36.4549 116.8020 357° North  Level Estimated
Sat 08:55:32 AM 36.5573 116.7961 357° North  Level Estimated
Sat 08:56:32 AM 36.6596 116.7903 357° North  Level Estimated
Sat 08:57:32 AM 36.7619 116.7844 357° North  Level Estimated
Sat 08:58:32 AM 36.8643 116.7785 357° North  Level Estimated
Sat 08:59:32 AM 36.9666 116.7726 357° North  Level Estimated
Sat 09:00:32 AM 37.0689 116.7667 357° North  Level Estimated
Sat 09:01:32 AM 37.1713 116.7607 357° North  Level Estimated
Sat 09:02:32 AM 37.2736 116.7548 357° North  Level Estimated
Sat 09:03:32 AM 37.3759 116.7488 357° North  Level Estimated
Sat 09:04:32 AM 37.4782 116.7428 357° North  Level Estimated
Sat 09:05:32 AM 37.5806 116.7368 357° North  Level Estimated
Sat 09:06:32 AM 37.6829 116.7308 357° North  Level Estimated
Sat 09:07:32 AM 37.7852 116.7247 357° North  Level Estimated
Sat 09:08:32 AM 37.8876 116.7187 357° North  Level Estimated
Sat 09:09:32 AM 37.9899 116.7126 357° North  Level Estimated
Sat 09:10:32 AM 38.0922 116.7065 357° North  Level Estimated
Sat 09:11:32 AM 38.1946 116.7004 357° North  Level Estimated
Sat 09:12:32 AM 38.2969 116.6942 357° North  Level Estimated
Sat 09:13:32 AM 38.3992 116.6881 357° North  Level Estimated
Sat 09:14:32 AM 38.5015 116.6819 357° North  Level Estimated
Sat 09:15:32 AM 38.6039 116.6757 357° North  Level Estimated
Sat 09:16:32 AM 38.7062 116.6695 357° North  Level Estimated
Sat 09:17:32 AM 38.8085 116.6633 357° North  Level Estimated
Sat 09:18:32 AM 38.9109 116.6571 357° North  Level Estimated
Sat 09:19:32 AM 39.0132 116.6508 357° North  Level Estimated
Sat 09:20:32 AM 39.1155 116.6446 357° North  Level Estimated
Sat 09:21:32 AM 39.2179 116.6383 357° North  Level Estimated
Sat 09:22:32 AM 39.3202 116.6320 357° North  Level Estimated
Sat 09:23:32 AM 39.4225 116.6257 357° North  Level Estimated
Sat 09:24:32 AM 39.5248 116.6193 357° North  Level Estimated
Sat 09:25:32 AM 39.6272 116.6130 357° North  Level Estimated
Sat 09:26:32 AM 39.7295 116.6066 357° North  Level Estimated
Sat 09:27:32 AM 39.8318 116.6002 357° North  Level Estimated
Sat 09:28:32 AM 39.9342 116.5938 357° North  Level Estimated
Sat 09:29:32 AM 40.0365 116.5873 357° North  Level Estimated
Sat 09:30:32 AM 40.1388 116.5808 177° South  Level Estimated
Sat 09:31:32 AM 40.0365 116.5873 357° North  Level Estimated
Sat 09:32:32 AM 40.1388 116.5808 177° South  Level Estimated
Sat 09:33:32 AM 40.0365 116.5873 357° North  Level Estimated
Sat 09:34:32 AM 40.1388 116.5808 357° North  Level Estimated

Login

Don't have an account? Register now (free) for customized features, flight alerts, and more!